Havering, United Kingdom
Current Conditions -  °F | °C
As of 12:50 PM on Thursday 30 Oct 2014 (Local Time) from EGLC Reporting Station
Broken Clouds Broken Clouds  
Wind Chill: 19°   Ceiling: 2000
Heat Index: 19°   Visibility: 6mi
Dew Point: 14°   Wind: 8mph
Humidity: 73%   Direction: 220°SW
Pressure: 30.09"   Gusts: NA
Location:  51.56°N, 0.24°E
Report Text: EGLC 301250Z 22007KT 9999 BKN020 19/14 Q1019
Loading
Personal Weather Stations






























Interactive Weather Map
Tropical Storm Tracking
New forecast layout! Learn more

10-Day Weather Forecast

Advertisements
Track Severe Weather on mobile